Terminal Aerodrome Forecast
Issued by NWS

Home | Current Version | Previous Version | Text Only | Print | Product List | Glossary Off
Versions: 1 2 3 4 5 6 7 8 9 10 11 12 13

000
FTUS43 KICT 261139
TAFSLN
TAF
KSLN 261139Z 2612/2712 35015G21KT P6SM OVC012
      TEMPO 2612/2615 BKN007 OVC015
     FM261700 02015G22KT P6SM BKN025 OVC040
     FM270000 34012KT P6SM VCSH OVC015
     FM270700 33012KT P6SM BKN025
     FM271000 33015KT P6SM SCT020 BKN035=

USA.gov is the U.S. government's official web portal to all federal, state and local government web resources and services.